Time;durP1;ratioP1;P1;durP2;ratioP2;P2;SDS_P1;SDS_P2;PMS_P1;PMS_P2;Temp;Humidity;BMP_temperature;BMP_pressure;BME280_temperature;BME280_humidity;BME280_pressure;Samples;Min_cycle;Max_cycle;Signal;HPM_P1;HPM_P2
2020/12/25 00:00:18;;;;;;;4.72;3.80;;;4.60;99.90;;;;;;5010720;28;20404;-65
2020/12/25 00:02:44;;;;;;;6.15;4.80;;;4.60;99.90;;;;;;5011736;28;20412;-66
2020/12/25 00:05:11;;;;;;;5.13;4.63;;;4.60;99.90;;;;;;5012788;28;20425;-66
2020/12/25 00:07:37;;;;;;;8.65;5.47;;;4.50;99.90;;;;;;5012293;28;20435;-65
2020/12/25 00:10:04;;;;;;;6.80;5.30;;;4.50;99.90;;;;;;5010796;28;20509;-66
2020/12/25 00:12:30;;;;;;;5.45;4.95;;;4.60;99.90;;;;;;5011411;28;20451;-66
2020/12/25 00:14:56;;;;;;;8.23;5.10;;;4.60;99.90;;;;;;5011228;28;20591;-67
2020/12/25 00:17:23;;;;;;;10.43;5.38;;;4.60;99.90;;;;;;5010458;28;21312;-66
2020/12/25 00:19:49;;;;;;;5.63;5.00;;;4.70;99.90;;;;;;5011012;28;20416;-66
2020/12/25 00:22:16;;;;;;;5.78;4.20;;;4.60;99.90;;;;;;5011233;28;20421;-66
2020/12/25 00:24:42;;;;;;;5.70;5.03;;;4.60;99.90;;;;;;5011010;28;20440;-66
2020/12/25 00:27:09;;;;;;;7.22;5.00;;;4.60;99.90;;;;;;5011081;28;20486;-66
2020/12/25 00:29:35;;;;;;;4.93;4.43;;;4.60;99.90;;;;;;5011076;28;20428;-66
2020/12/25 00:32:01;;;;;;;6.65;5.00;;;4.50;99.90;;;;;;5011183;28;20471;-66
2020/12/25 00:34:27;;;;;;;6.20;4.97;;;4.50;99.90;;;;;;5010971;28;20416;-65
2020/12/25 00:36:53;;;;;;;7.93;4.97;;;4.40;99.90;;;;;;5011304;28;20475;-66
2020/12/25 00:39:20;;;;;;;8.27;4.95;;;4.30;99.90;;;;;;5015319;28;20420;-66
2020/12/25 00:41:48;;;;;;;5.97;4.90;;;4.40;99.90;;;;;;5015021;28;20427;-66
2020/12/25 00:44:14;;;;;;;5.53;4.70;;;4.30;99.90;;;;;;5014623;28;20420;-66
2020/12/25 00:46:42;;;;;;;6.55;4.80;;;4.30;99.90;;;;;;5014638;28;20429;-66
2020/12/25 00:49:09;;;;;;;7.75;5.28;;;4.30;99.90;;;;;;5014565;28;20428;-66
2020/12/25 00:51:35;;;;;;;6.72;5.20;;;4.20;99.90;;;;;;5014650;28;20416;-66
2020/12/25 00:54:01;;;;;;;6.85;4.82;;;4.20;99.90;;;;;;5014203;28;20923;-66
2020/12/25 00:56:28;;;;;;;7.93;5.13;;;4.20;99.90;;;;;;5014586;28;20417;-66
2020/12/25 00:58:54;;;;;;;8.73;5.47;;;4.10;99.90;;;;;;5014306;28;20428;-66
2020/12/25 01:01:20;;;;;;;5.70;4.50;;;4.10;99.90;;;;;;5014282;28;20785;-66
2020/12/25 01:03:47;;;;;;;5.68;4.22;;;4.10;99.90;;;;;;5013928;28;20416;-66
2020/12/25 01:06:14;;;;;;;5.68;4.65;;;4.10;99.90;;;;;;5013906;28;20428;-66
2020/12/25 01:08:41;;;;;;;6.90;4.80;;;4.10;99.90;;;;;;5014571;28;20416;-66
2020/12/25 01:11:07;;;;;;;8.95;4.97;;;4.10;99.90;;;;;;5014258;28;20427;-66
2020/12/25 01:13:35;;;;;;;6.57;4.60;;;4.10;99.90;;;;;;5013896;28;20446;-66
2020/12/25 01:16:03;;;;;;;8.07;4.70;;;4.10;99.90;;;;;;5013881;28;20523;-66
2020/12/25 01:18:29;;;;;;;6.00;4.82;;;4.10;99.90;;;;;;5013971;28;20417;-65
2020/12/25 01:20:55;;;;;;;6.80;4.70;;;4.10;99.90;;;;;;5014157;28;20793;-65
2020/12/25 01:23:21;;;;;;;7.93;5.60;;;4.10;99.90;;;;;;5013871;28;20413;-66
2020/12/25 01:25:47;;;;;;;8.88;5.22;;;4.00;99.90;;;;;;5013979;28;20424;-65
2020/12/25 01:28:13;;;;;;;7.47;4.72;;;4.00;99.90;;;;;;5013981;28;20416;-65
2020/12/25 01:30:40;;;;;;;9.25;4.47;;;4.00;99.90;;;;;;5013865;28;20893;-65
2020/12/25 01:33:06;;;;;;;8.45;5.00;;;3.90;99.90;;;;;;5013878;28;20771;-65
2020/12/25 01:35:33;;;;;;;6.65;4.20;;;4.00;99.90;;;;;;5013403;28;20417;-66
2020/12/25 01:37:59;;;;;;;7.93;4.28;;;4.00;99.90;;;;;;5013785;28;20777;-65
2020/12/25 01:40:25;;;;;;;5.05;4.00;;;4.00;99.90;;;;;;5013536;28;20785;-65
2020/12/25 01:42:51;;;;;;;7.67;4.23;;;4.00;99.90;;;;;;5013831;28;20479;-66
2020/12/25 01:45:17;;;;;;;7.05;4.65;;;3.90;99.90;;;;;;5013270;28;20415;-65
2020/12/25 01:47:45;;;;;;;7.90;4.97;;;3.90;99.90;;;;;;5013333;28;20435;-65
2020/12/25 01:50:14;;;;;;;6.65;4.07;;;3.90;99.90;;;;;;5012265;28;20425;-66
2020/12/25 01:52:41;;;;;;;4.63;3.35;;;3.80;99.90;;;;;;5013271;28;20420;-65
2020/12/25 01:55:09;;;;;;;5.60;3.75;;;3.80;99.90;;;;;;5013258;28;20416;-65
2020/12/25 01:57:35;;;;;;;5.93;3.88;;;3.70;99.90;;;;;;5012839;28;20416;-65
2020/12/25 02:00:03;;;;;;;6.68;4.00;;;3.70;99.90;;;;;;5013039;28;20423;-65
2020/12/25 02:02:30;;;;;;;5.20;3.60;;;3.60;94.20;;;;;;5013347;28;20412;-65
2020/12/25 02:04:57;;;;;;;7.22;3.70;;;3.60;92.50;;;;;;5013446;28;20420;-66
2020/12/25 02:07:23;;;;;;;6.60;2.60;;;3.60;83.60;;;;;;5013009;28;20944;-65
2020/12/25 02:09:50;;;;;;;4.53;3.00;;;3.60;59.20;;;;;;5012796;28;20881;-65
2020/12/25 02:12:17;;;;;;;3.30;3.00;;;3.50;89.40;;;;;;5013226;28;20412;-66
2020/12/25 02:14:43;;;;;;;4.82;2.90;;;3.60;83.90;;;;;;5012997;28;20479;-65
2020/12/25 02:17:09;;;;;;;3.97;2.70;;;3.60;86.20;;;;;;5013003;28;20413;-66
2020/12/25 02:19:37;;;;;;;5.78;2.60;;;3.60;87.60;;;;;;5013585;28;20420;-66
2020/12/25 02:22:04;;;;;;;7.60;3.50;;;3.70;77.30;;;;;;5013225;28;20417;-66
2020/12/25 02:24:30;;;;;;;5.03;2.90;;;3.70;68.60;;;;;;5012997;28;20412;-65
2020/12/25 02:26:56;;;;;;;4.65;2.88;;;3.60;85.10;;;;;;5012769;28;20935;-66
2020/12/25 02:29:22;;;;;;;4.88;2.30;;;3.60;84.20;;;;;;5013062;28;20902;-65
2020/12/25 02:31:48;;;;;;;5.75;2.83;;;3.60;89.40;;;;;;5012602;28;20420;-66
2020/12/25 02:34:14;;;;;;;6.32;2.58;;;3.60;91.80;;;;;;5012703;28;20535;-65
2020/12/25 02:36:40;;;;;;;4.22;2.80;;;3.60;88.50;;;;;;5013125;28;20404;-65
2020/12/25 02:39:08;;;;;;;4.65;2.42;;;3.60;89.40;;;;;;5013011;28;20416;-65
2020/12/25 02:41:34;;;;;;;3.05;2.40;;;3.60;89.70;;;;;;5013193;28;20420;-65
2020/12/25 02:44:00;;;;;;;5.53;2.58;;;3.60;77.00;;;;;;5012467;28;20421;-65
2020/12/25 02:46:27;;;;;;;5.00;2.80;;;3.60;84.00;;;;;;5012536;28;20571;-64
2020/12/25 02:48:53;;;;;;;5.63;2.50;;;3.60;71.00;;;;;;5012922;28;20837;-65
2020/12/25 02:51:19;;;;;;;5.80;2.60;;;3.60;82.00;;;;;;5012809;28;20443;-65
2020/12/25 02:53:45;;;;;;;7.20;2.33;;;3.60;78.60;;;;;;5012782;28;20417;-65
2020/12/25 02:56:15;;;;;;;4.32;2.40;;;3.70;85.50;;;;;;5012822;28;20408;-65
2020/12/25 02:58:41;;;;;;;5.38;2.50;;;3.60;67.60;;;;;;5013363;28;20409;-65
2020/12/25 03:01:10;;;;;;;3.25;2.05;;;3.70;60.00;;;;;;5012474;28;20436;-64
2020/12/25 03:03:36;;;;;;;5.20;2.10;;;3.70;59.10;;;;;;5011986;28;20421;-65
2020/12/25 03:06:02;;;;;;;4.70;1.63;;;3.70;45.00;;;;;;5012045;28;20423;-65
2020/12/25 03:08:28;;;;;;;5.43;2.13;;;3.50;28.60;;;;;;5012960;28;20427;-65
2020/12/25 03:10:54;;;;;;;5.68;2.20;;;3.50;39.50;;;;;;5011922;28;20790;-66
2020/12/25 03:13:21;;;;;;;6.50;1.70;;;3.60;51.20;;;;;;5011602;28;20914;-65
2020/12/25 03:15:47;;;;;;;3.55;2.40;;;3.50;34.90;;;;;;5012018;28;20420;-65
2020/12/25 03:18:13;;;;;;;5.13;1.90;;;3.60;41.30;;;;;;5012036;28;20766;-65
2020/12/25 03:20:39;;;;;;;4.90;2.10;;;3.60;45.40;;;;;;5011668;28;20470;-65
2020/12/25 03:23:06;;;;;;;9.15;2.20;;;3.60;23.90;;;;;;5011684;28;20424;-65
2020/12/25 03:25:32;;;;;;;3.40;1.90;;;3.60;22.40;;;;;;5011440;28;20413;-65
2020/12/25 03:27:58;;;;;;;4.78;1.77;;;3.60;16.20;;;;;;5011500;28;20800;-65
2020/12/25 03:30:25;;;;;;;5.10;2.05;;;3.60;1.00;;;;;;5011686;28;20412;-65
2020/12/25 03:32:51;;;;;;;5.18;1.73;;;3.60;1.00;;;;;;5012931;28;20413;-65
2020/12/25 03:35:17;;;;;;;5.82;2.10;;;3.40;1.00;;;;;;5011311;28;20908;-65
2020/12/25 03:37:43;;;;;;;3.63;2.20;;;3.30;1.00;;;;;;5011442;28;20408;-65
2020/12/25 03:40:10;;;;;;;3.80;1.33;;;3.10;1.00;;;;;;5011501;28;20439;-65
2020/12/25 03:42:37;;;;;;;3.95;2.00;;;3.10;5.40;;;;;;5011334;28;20428;-65
2020/12/25 03:45:03;;;;;;;2.83;1.40;;;3.10;11.70;;;;;;5011397;28;20479;-65
2020/12/25 03:47:30;;;;;;;3.92;1.90;;;3.10;14.70;;;;;;5011459;28;20821;-65
2020/12/25 03:49:56;;;;;;;2.60;1.63;;;3.00;12.60;;;;;;5011196;28;20925;-65
2020/12/25 03:52:22;;;;;;;6.63;2.03;;;2.90;17.90;;;;;;5011372;28;20412;-65
2020/12/25 03:54:48;;;;;;;4.20;1.92;;;2.80;26.40;;;;;;5011015;28;20416;-65
2020/12/25 03:57:15;;;;;;;7.43;1.90;;;2.80;28.70;;;;;;5011092;28;20423;-65
2020/12/25 03:59:41;;;;;;;6.18;1.80;;;2.80;20.60;;;;;;5011332;28;20412;-65
2020/12/25 04:02:07;;;;;;;5.70;1.70;;;2.80;16.70;;;;;;5011312;28;20417;-65
2020/12/25 04:04:34;;;;;;;4.63;1.90;;;2.70;23.60;;;;;;5011184;28;20425;-65
2020/12/25 04:07:00;;;;;;;5.00;1.88;;;2.60;28.30;;;;;;5011058;28;20798;-65
2020/12/25 04:09:26;;;;;;;5.15;2.15;;;2.60;42.50;;;;;;5011148;28;20424;-65
2020/12/25 04:11:52;;;;;;;4.17;2.60;;;2.60;45.60;;;;;;5011135;28;20813;-65
2020/12/25 04:14:19;;;;;;;4.32;2.08;;;2.60;55.40;;;;;;5014833;28;20424;-65
2020/12/25 04:16:46;;;;;;;10.18;2.28;;;2.50;42.40;;;;;;5015214;28;20785;-65
2020/12/25 04:19:12;;;;;;;6.30;2.20;;;2.50;55.40;;;;;;5015053;28;20474;-65
2020/12/25 04:21:39;;;;;;;4.20;1.67;;;2.50;61.20;;;;;;5015221;28;21015;-65
2020/12/25 04:24:06;;;;;;;7.75;2.70;;;2.50;59.30;;;;;;5014961;28;20420;-65
2020/12/25 04:26:32;;;;;;;8.18;2.30;;;2.40;66.30;;;;;;5014487;28;20913;-65
2020/12/25 04:28:58;;;;;;;5.40;2.10;;;2.30;93.40;;;;;;5015093;28;20416;-65
2020/12/25 04:31:24;;;;;;;5.90;2.10;;;2.20;99.90;;;;;;5015025;28;20543;-65
2020/12/25 04:33:51;;;;;;;5.22;1.90;;;2.10;99.90;;;;;;5014674;28;20421;-65
2020/12/25 04:36:17;;;;;;;4.55;2.60;;;2.10;99.90;;;;;;5014760;28;20419;-65
2020/12/25 04:38:44;;;;;;;4.43;3.00;;;2.10;99.90;;;;;;5014684;28;20412;-65
2020/12/25 04:41:11;;;;;;;6.30;2.60;;;2.10;99.90;;;;;;5014942;28;20801;-65
2020/12/25 04:43:40;;;;;;;8.10;3.08;;;2.00;99.90;;;;;;5014596;28;20471;-65
2020/12/25 04:46:07;;;;;;;11.35;3.90;;;2.00;99.90;;;;;;5014426;28;20439;-65
2020/12/25 04:48:34;;;;;;;5.57;2.97;;;2.00;99.90;;;;;;5014481;28;20416;-65
2020/12/25 04:51:00;;;;;;;6.28;2.90;;;1.80;99.90;;;;;;5014436;28;20424;-65
2020/12/25 04:53:26;;;;;;;7.22;3.35;;;1.80;99.90;;;;;;5014246;28;20412;-65
2020/12/25 04:55:53;;;;;;;5.05;2.80;;;1.70;99.90;;;;;;5014054;28;20890;-65
2020/12/25 04:58:19;;;;;;;6.97;3.30;;;1.70;99.90;;;;;;5014536;28;20408;-65
2020/12/25 05:01:01;;;;;;;8.07;4.10;;;1.70;99.90;;;;;;5014157;28;20463;-65
2020/12/25 05:03:27;;;;;;;6.10;3.10;;;1.60;99.90;;;;;;5014479;28;20421;-65
2020/12/25 05:05:53;;;;;;;5.15;3.10;;;1.70;99.90;;;;;;5014036;28;20412;-65
2020/12/25 05:08:20;;;;;;;8.63;3.97;;;1.70;99.90;;;;;;5014172;28;20429;-65
2020/12/25 05:10:48;;;;;;;5.38;3.13;;;1.80;99.90;;;;;;5014253;28;20417;-65
2020/12/25 05:13:18;;;;;;;6.15;3.35;;;1.80;99.90;;;;;;5014158;28;20416;-65
2020/12/25 05:15:48;;;;;;;8.43;3.50;;;1.80;99.90;;;;;;5013867;28;20785;-65
2020/12/25 05:18:16;;;;;;;8.35;3.90;;;1.80;99.90;;;;;;5013977;28;20448;-65
2020/12/25 05:20:42;;;;;;;6.60;3.70;;;1.80;99.90;;;;;;5014013;28;20486;-65
2020/12/25 05:23:10;;;;;;;6.20;3.30;;;1.80;99.90;;;;;;4997705;28;20428;-65
2020/12/25 05:25:39;;;;;;;8.38;4.13;;;1.80;99.90;;;;;;4993052;28;20418;-65
2020/12/25 05:28:11;;;;;;;9.85;4.22;;;1.70;99.90;;;;;;4994068;28;20926;-65
2020/12/25 05:30:39;;;;;;;7.40;4.30;;;1.60;99.90;;;;;;4994018;28;20414;-65
2020/12/25 05:33:07;;;;;;;8.50;4.15;;;1.60;99.90;;;;;;4994069;28;20453;-65
2020/12/25 05:35:34;;;;;;;8.60;4.85;;;1.60;1.00;;;;;;4994031;28;20425;-65
2020/12/25 05:38:09;;;;;;;4.82;3.60;;;1.60;1.00;;;;;;4994207;28;20411;-65
2020/12/25 05:40:41;;;;;;;8.40;4.32;;;1.60;1.00;;;;;;4994066;28;20418;-65
2020/12/25 05:43:08;;;;;;;8.20;3.92;;;1.60;1.00;;;;;;4993876;28;20814;-65
2020/12/25 05:45:34;;;;;;;9.10;4.80;;;1.60;1.00;;;;;;4993583;28;20410;-65
2020/12/25 05:48:05;;;;;;;7.60;3.92;;;1.50;1.00;;;;;;4993737;28;20906;-65
2020/12/25 05:50:31;;;;;;;7.28;4.60;;;1.50;1.00;;;;;;4993473;28;20871;-65
2020/12/25 05:52:58;;;;;;;13.65;5.32;;;1.40;1.00;;;;;;4993930;28;20418;-65
2020/12/25 05:55:24;;;;;;;7.97;4.38;;;1.30;1.00;;;;;;4993404;28;20421;-65
2020/12/25 05:57:51;;;;;;;8.93;3.80;;;1.30;1.00;;;;;;4993578;28;20417;-65
2020/12/25 06:00:18;;;;;;;8.98;3.78;;;1.40;1.00;;;;;;4993420;28;20410;-65
2020/12/25 06:02:45;;;;;;;8.02;4.30;;;1.30;1.00;;;;;;4993803;28;20429;-65
2020/12/25 06:05:14;;;;;;;9.45;4.30;;;1.30;1.00;;;;;;4993578;28;20464;-65
2020/12/25 06:07:48;;;;;;;10.98;4.13;;;1.20;1.00;;;;;;4993009;28;20934;-65
2020/12/25 06:10:16;;;;;;;13.80;4.80;;;1.10;1.00;;;;;;4993646;28;20429;-65
2020/12/25 06:12:42;;;;;;;4.45;3.45;;;1.20;1.00;;;;;;4993199;28;20422;-65
2020/12/25 06:15:11;;;;;;;7.95;4.00;;;1.20;1.00;;;;;;4993256;28;20422;-65
2020/12/25 06:17:42;;;;;;;9.38;4.32;;;1.20;1.00;;;;;;4993306;28;20410;-65
2020/12/25 06:20:13;;;;;;;11.30;4.25;;;1.20;1.00;;;;;;4993148;28;20429;-65
2020/12/25 06:22:41;;;;;;;9.70;4.18;;;1.20;1.00;;;;;;4993296;28;20799;-65
2020/12/25 06:25:09;;;;;;;8.68;4.50;;;1.10;1.00;;;;;;4992965;28;20426;-65
2020/12/25 06:27:36;;;;;;;10.85;4.40;;;1.10;1.00;;;;;;4993250;28;20430;-65
2020/12/25 06:30:04;;;;;;;8.05;4.65;;;1.30;1.00;;;;;;4993243;28;20418;-65
2020/12/25 06:32:32;;;;;;;12.48;5.00;;;1.40;1.00;;;;;;4994144;28;20418;-65
2020/12/25 06:35:00;;;;;;;10.63;5.70;;;1.40;1.00;;;;;;4992675;28;20410;-65
2020/12/25 06:37:28;;;;;;;12.30;4.93;;;1.30;15.30;;;;;;4992806;28;20418;-66
2020/12/25 06:39:57;;;;;;;9.20;4.10;;;1.50;68.40;;;;;;4992711;28;20418;-65
2020/12/25 06:42:25;;;;;;;7.90;4.63;;;1.60;86.20;;;;;;4992573;28;20958;-65
2020/12/25 06:44:51;;;;;;;7.28;4.30;;;1.70;83.20;;;;;;4992821;28;20466;-65
2020/12/25 06:47:28;;;;;;;8.75;4.28;;;1.80;90.80;;;;;;4992630;28;20426;-65
2020/12/25 06:49:54;;;;;;;9.32;4.90;;;1.90;96.10;;;;;;4992427;28;20497;-65
2020/12/25 06:52:27;;;;;;;8.97;4.77;;;1.90;74.20;;;;;;4992534;28;21155;-65
2020/12/25 06:54:53;;;;;;;10.73;4.70;;;1.90;92.70;;;;;;4992381;28;20438;-66
2020/12/25 06:57:23;;;;;;;9.30;4.88;;;1.90;83.60;;;;;;4992352;28;20902;-65
2020/12/25 06:59:52;;;;;;;11.23;6.15;;;1.70;98.80;;;;;;4992626;28;20484;-65
2020/12/25 07:02:19;;;;;;;12.70;6.20;;;1.60;99.90;;;;;;4992447;28;20432;-65
2020/12/25 07:04:45;;;;;;;9.90;6.30;;;1.60;99.90;;;;;;4992368;28;20414;-65
2020/12/25 07:07:11;;;;;;;12.38;6.47;;;1.60;99.90;;;;;;4992335;28;20477;-65
2020/12/25 07:09:39;;;;;;;13.07;7.07;;;1.70;99.90;;;;;;4992411;28;20795;-65
2020/12/25 07:12:07;;;;;;;15.52;8.25;;;1.70;99.90;;;;;;4992340;28;20418;-65
2020/12/25 07:14:34;;;;;;;14.00;7.57;;;1.60;99.90;;;;;;4991440;28;20834;-65
2020/12/25 07:17:00;;;;;;;13.10;6.93;;;1.70;99.90;;;;;;4992459;28;20419;-65
2020/12/25 07:19:26;;;;;;;11.63;7.00;;;1.80;99.90;;;;;;4992575;28;20418;-66
2020/12/25 07:21:52;;;;;;;10.27;6.33;;;1.80;99.90;;;;;;4992569;28;20418;-65
2020/12/25 07:24:19;;;;;;;9.07;5.80;;;1.80;99.90;;;;;;4992262;28;20422;-65
2020/12/25 07:26:47;;;;;;;9.20;6.43;;;1.90;99.90;;;;;;4992590;28;20529;-66
2020/12/25 07:29:14;;;;;;;13.02;6.20;;;1.80;99.90;;;;;;4992216;28;20505;-65
2020/12/25 07:31:46;;;;;;;7.65;5.70;;;2.00;99.90;;;;;;4991677;28;20435;-66
2020/12/25 07:34:17;;;;;;;11.45;6.78;;;2.10;99.90;;;;;;4992004;28;20426;-65
2020/12/25 07:36:43;;;;;;;9.55;6.43;;;2.00;99.90;;;;;;4991810;28;20844;-65
2020/12/25 07:39:09;;;;;;;10.40;6.30;;;2.10;99.90;;;;;;4991771;28;20423;-65
2020/12/25 07:41:35;;;;;;;10.90;5.63;;;2.20;99.90;;;;;;4991646;28;20915;-65
2020/12/25 07:44:03;;;;;;;12.68;6.20;;;2.20;99.90;;;;;;4991478;28;20426;-65
2020/12/25 07:46:30;;;;;;;10.57;5.80;;;2.10;99.90;;;;;;4991255;28;20430;-65
2020/12/25 07:48:58;;;;;;;6.75;4.78;;;2.10;99.90;;;;;;4991390;28;20501;-65
2020/12/25 07:51:24;;;;;;;10.35;5.82;;;1.90;99.90;;;;;;4991718;28;20425;-65
2020/12/25 07:53:51;;;;;;;10.15;4.85;;;2.20;99.90;;;;;;4991518;28;20414;-65
2020/12/25 07:56:21;;;;;;;8.35;4.80;;;2.20;99.90;;;;;;4991415;28;20469;-65
2020/12/25 07:58:52;;;;;;;9.98;5.40;;;2.20;99.90;;;;;;4991475;28;20493;-65
2020/12/25 08:01:19;;;;;;;7.85;4.93;;;2.20;99.90;;;;;;4991723;28;20437;-65
2020/12/25 08:03:45;;;;;;;9.10;5.03;;;2.10;99.90;;;;;;4991805;28;20504;-65
2020/12/25 08:06:17;;;;;;;9.85;5.10;;;2.10;99.90;;;;;;4991371;28;20438;-65
2020/12/25 08:08:46;;;;;;;9.88;4.13;;;2.10;99.90;;;;;;4991315;28;20426;-65
2020/12/25 08:11:14;;;;;;;9.57;4.60;;;2.20;99.90;;;;;;4991198;28;20806;-65
2020/12/25 08:13:41;;;;;;;6.55;3.95;;;2.10;99.90;;;;;;4991211;28;20447;-65
2020/12/25 08:16:08;;;;;;;10.10;4.83;;;1.90;99.90;;;;;;4991313;28;20481;-65
2020/12/25 08:18:34;;;;;;;7.40;4.40;;;1.90;99.90;;;;;;4991292;28;20410;-65
2020/12/25 08:21:01;;;;;;;12.20;4.20;;;1.90;99.90;;;;;;4991228;28;20422;-65
2020/12/25 08:23:32;;;;;;;8.38;3.80;;;2.00;99.90;;;;;;4991374;28;20477;-65
2020/12/25 08:25:58;;;;;;;8.00;3.92;;;2.00;99.90;;;;;;4991036;28;20418;-65
2020/12/25 08:28:24;;;;;;;9.13;4.22;;;2.00;99.90;;;;;;4991534;28;20860;-65
2020/12/25 08:30:50;;;;;;;9.13;4.40;;;1.80;99.90;;;;;;4991264;28;20421;-65
2020/12/25 08:33:22;;;;;;;9.27;5.00;;;1.80;99.90;;;;;;4991307;28;20418;-65
2020/12/25 08:35:48;;;;;;;11.18;5.00;;;1.60;99.90;;;;;;4990947;28;20433;-65
2020/12/25 08:38:16;;;;;;;8.53;4.70;;;1.60;99.90;;;;;;4995693;28;20463;-66
2020/12/25 08:40:45;;;;;;;5.20;4.20;;;1.60;99.90;;;;;;5010451;28;20431;-66
2020/12/25 08:43:12;;;;;;;6.30;4.22;;;1.70;99.90;;;;;;5010747;28;20443;-66
2020/12/25 08:45:40;;;;;;;7.80;4.65;;;1.90;99.90;;;;;;5010728;28;20801;-66
2020/12/25 08:48:09;;;;;;;7.85;4.35;;;1.90;99.90;;;;;;5011110;28;20998;-66
2020/12/25 08:50:35;;;;;;;8.00;4.32;;;2.00;99.90;;;;;;5012613;28;20475;-67
2020/12/25 08:53:16;;;;;;;7.32;3.78;;;2.10;99.90;;;;;;5009766;28;20451;-66
2020/12/25 08:55:44;;;;;;;7.18;3.88;;;2.20;99.90;;;;;;5010397;28;20425;-66
2020/12/25 08:58:11;;;;;;;5.95;3.80;;;2.20;99.90;;;;;;4990884;28;20950;-68
2020/12/25 09:00:37;;;;;;;9.88;4.05;;;2.20;99.90;;;;;;4994882;28;20441;-67
2020/12/25 09:03:04;;;;;;;9.68;4.38;;;2.20;99.90;;;;;;4994746;28;20425;-66
2020/12/25 09:05:30;;;;;;;10.52;4.30;;;2.40;99.90;;;;;;4994785;28;20441;-66
2020/12/25 09:07:56;;;;;;;8.45;4.40;;;2.60;99.90;;;;;;4994682;28;20487;-66
2020/12/25 09:10:22;;;;;;;6.78;4.53;;;2.70;99.90;;;;;;4994750;28;20422;-66
2020/12/25 09:12:49;;;;;;;9.18;4.30;;;2.80;99.90;;;;;;4995377;28;20418;-65
2020/12/25 09:15:15;;;;;;;4.03;3.40;;;2.80;99.90;;;;;;4996026;28;20427;-66
2020/12/25 09:17:41;;;;;;;7.55;3.60;;;2.90;99.90;;;;;;4996397;28;20415;-66
2020/12/25 09:20:07;;;;;;;11.63;4.15;;;2.90;99.90;;;;;;4994390;28;20411;-66
2020/12/25 09:22:34;;;;;;;7.88;3.80;;;2.90;99.90;;;;;;4994769;28;20429;-66
2020/12/25 09:25:00;;;;;;;6.50;3.50;;;3.10;99.90;;;;;;4994533;28;20435;-66
2020/12/25 09:27:26;;;;;;;7.22;3.10;;;3.40;99.90;;;;;;4993979;28;20488;-67
2020/12/25 09:29:53;;;;;;;3.55;2.75;;;3.60;50.70;;;;;;4994350;28;20437;-67
2020/12/25 09:32:19;;;;;;;4.30;2.60;;;3.80;1.90;;;;;;4994160;28;20468;-67
2020/12/25 09:34:45;;;;;;;4.65;2.83;;;3.80;1.00;;;;;;4994201;28;20430;-67
2020/12/25 09:37:11;;;;;;;5.47;2.90;;;3.80;1.00;;;;;;4993792;28;20507;-65
2020/12/25 09:39:37;;;;;;;4.50;2.53;;;3.80;1.00;;;;;;4994146;28;20418;-66
2020/12/25 09:42:03;;;;;;;5.40;2.78;;;3.80;99.90;;;;;;4994081;28;20418;-66
2020/12/25 09:44:30;;;;;;;5.63;3.40;;;3.80;99.90;;;;;;4993775;28;20424;-66
2020/12/25 09:46:56;;;;;;;9.85;2.90;;;3.80;99.90;;;;;;4993687;28;20426;-66
2020/12/25 09:49:23;;;;;;;4.63;3.20;;;3.80;99.90;;;;;;4993797;28;20422;-66
2020/12/25 09:51:49;;;;;;;5.43;3.00;;;3.90;99.90;;;;;;5000033;28;20420;-66
2020/12/25 09:54:15;;;;;;;3.67;2.72;;;3.90;99.90;;;;;;5013461;28;20417;-66
2020/12/25 09:56:41;;;;;;;3.60;2.60;;;4.00;99.90;;;;;;5013003;28;20780;-66
2020/12/25 09:59:07;;;;;;;6.38;3.10;;;4.00;99.90;;;;;;5013230;28;20420;-66
2020/12/25 10:01:33;;;;;;;7.13;3.10;;;3.90;99.90;;;;;;5013177;28;20432;-66
2020/12/25 10:04:00;;;;;;;3.97;2.50;;;3.90;99.90;;;;;;5013306;28;20518;-66
2020/12/25 10:06:27;;;;;;;4.10;3.10;;;4.00;99.90;;;;;;5013288;28;20428;-66
2020/12/25 10:08:53;;;;;;;6.18;3.20;;;3.90;99.90;;;;;;5012850;28;20505;-66
2020/12/25 10:11:20;;;;;;;8.37;3.83;;;4.00;99.90;;;;;;5012536;28;20498;-66
2020/12/25 10:13:46;;;;;;;5.40;3.90;;;3.90;99.90;;;;;;5012751;28;20428;-66
2020/12/25 10:16:12;;;;;;;6.35;4.70;;;3.80;99.90;;;;;;5012726;28;20420;-66
2020/12/25 10:18:38;;;;;;;5.30;3.83;;;3.70;99.90;;;;;;5012467;28;20425;-66
2020/12/25 10:21:05;;;;;;;5.50;4.30;;;3.80;99.90;;;;;;5012834;28;20417;-66
2020/12/25 10:23:31;;;;;;;5.00;3.60;;;3.80;99.90;;;;;;5012880;28;20424;-66
2020/12/25 10:25:57;;;;;;;4.97;3.75;;;3.70;99.90;;;;;;5012664;28;20416;-66
2020/12/25 10:28:23;;;;;;;5.05;3.45;;;3.70;99.90;;;;;;5012272;28;20432;-66
2020/12/25 10:30:49;;;;;;;8.07;4.30;;;3.60;99.90;;;;;;5012453;28;20479;-67
2020/12/25 10:33:16;;;;;;;7.03;4.33;;;3.60;99.90;;;;;;5012468;28;21033;-66
2020/12/25 10:35:44;;;;;;;7.53;4.80;;;3.70;99.90;;;;;;5012592;28;20427;-66
2020/12/25 10:38:11;;;;;;;8.50;3.80;;;3.80;99.90;;;;;;5012343;28;20417;-66
2020/12/25 10:40:37;;;;;;;5.70;3.53;;;3.90;99.90;;;;;;5012748;28;20425;-66
2020/12/25 10:43:03;;;;;;;5.97;3.42;;;4.10;99.90;;;;;;5012583;28;20421;-66
2020/12/25 10:45:29;;;;;;;3.95;3.08;;;4.10;99.90;;;;;;5011941;28;21065;-66
2020/12/25 10:47:55;;;;;;;6.20;3.40;;;4.20;99.90;;;;;;5012415;28;20431;-66
2020/12/25 10:50:21;;;;;;;5.43;2.95;;;4.30;99.90;;;;;;5012760;28;21050;-66
2020/12/25 10:52:47;;;;;;;4.95;2.80;;;4.30;99.90;;;;;;5012743;28;20475;-66
2020/12/25 10:55:14;;;;;;;5.32;2.60;;;4.40;99.90;;;;;;5013440;28;20421;-66
2020/12/25 10:57:40;;;;;;;3.70;2.20;;;4.50;99.90;;;;;;5012812;28;20421;-66
2020/12/25 11:00:06;;;;;;;6.35;2.50;;;4.60;99.90;;;;;;5012047;28;20420;-66
2020/12/25 11:02:32;;;;;;;2.20;2.00;;;4.60;99.90;;;;;;5013012;28;20424;-65
2020/12/25 11:04:58;;;;;;;4.32;2.60;;;4.70;99.90;;;;;;5012674;28;20916;-66
2020/12/25 11:07:24;;;;;;;5.10;2.27;;;4.80;99.60;;;;;;5013358;28;20479;-66
2020/12/25 11:09:50;;;;;;;3.65;2.10;;;4.80;64.80;;;;;;5013939;28;20423;-66
2020/12/25 11:12:17;;;;;;;7.05;3.08;;;4.80;18.40;;;;;;5012035;28;20424;-66
2020/12/25 11:14:43;;;;;;;6.63;3.10;;;4.80;1.50;;;;;;5012349;28;20427;-66
2020/12/25 11:17:10;;;;;;;5.70;2.95;;;4.80;1.50;;;;;;5011429;28;20420;-66
2020/12/25 11:19:37;;;;;;;5.25;2.67;;;4.80;1.30;;;;;;5012093;28;20424;-66
2020/12/25 11:22:03;;;;;;;6.32;2.70;;;4.80;1.30;;;;;;5010682;28;20420;-66
2020/12/25 11:24:30;;;;;;;5.03;2.67;;;4.80;2.10;;;;;;5011725;28;20920;-66
2020/12/25 11:26:56;;;;;;;5.55;2.83;;;5.00;1.80;;;;;;5011615;28;20420;-66
2020/12/25 11:29:22;;;;;;;5.30;2.60;;;5.30;1.70;;;;;;5011350;28;21041;-65
2020/12/25 11:31:49;;;;;;;3.13;2.53;;;5.60;1.90;;;;;;5012270;28;20420;-66
2020/12/25 11:34:15;;;;;;;6.32;2.70;;;5.60;1.00;;;;;;5014894;28;20440;-65
2020/12/25 11:36:41;;;;;;;7.17;2.27;;;5.70;1.00;;;;;;5011333;28;20492;-66
2020/12/25 11:39:07;;;;;;;5.65;2.20;;;5.80;1.00;;;;;;5011306;28;20416;-66
2020/12/25 11:41:35;;;;;;;6.20;2.58;;;5.90;1.00;;;;;;5011463;28;20416;-66
2020/12/25 11:44:01;;;;;;;4.07;2.65;;;5.80;1.00;;;;;;5011589;28;20420;-66
2020/12/25 11:46:28;;;;;;;6.03;3.13;;;5.90;1.00;;;;;;5011536;28;20512;-66
2020/12/25 11:48:55;;;;;;;4.43;3.10;;;5.90;1.00;;;;;;5012276;28;20432;-68
2020/12/25 11:51:23;;;;;;;6.30;2.20;;;5.80;1.00;;;;;;5012374;28;20470;-64
2020/12/25 11:53:49;;;;;;;5.85;2.08;;;5.60;1.00;;;;;;5012501;28;20420;-67
2020/12/25 11:56:18;;;;;;;5.50;1.70;;;5.50;1.00;;;;;;5012747;28;20440;-66
2020/12/25 11:58:44;;;;;;;7.82;2.58;;;5.20;1.00;;;;;;5012098;28;20425;-65
2020/12/25 12:01:11;;;;;;;6.65;2.85;;;5.30;1.00;;;;;;5012953;28;20425;-64
2020/12/25 12:03:37;;;;;;;6.83;3.10;;;5.40;1.00;;;;;;5013520;28;20420;-66
2020/12/25 12:06:04;;;;;;;4.72;1.88;;;5.40;1.00;;;;;;5011878;28;20416;-65
2020/12/25 12:08:30;;;;;;;5.30;2.03;;;5.60;1.00;;;;;;5011555;28;20433;-65
2020/12/25 12:10:56;;;;;;;3.50;1.60;;;5.70;1.00;;;;;;5011263;28;20425;-64
2020/12/25 12:13:22;;;;;;;4.20;1.52;;;6.00;1.00;;;;;;5011470;28;20416;-64
2020/12/25 12:15:49;;;;;;;4.70;1.52;;;6.10;1.00;;;;;;5011573;28;20419;-63
2020/12/25 12:18:15;;;;;;;5.77;2.00;;;6.10;1.00;;;;;;5011394;28;20412;-64
2020/12/25 12:20:42;;;;;;;4.32;1.73;;;5.90;1.00;;;;;;5011656;28;20416;-64
2020/12/25 12:23:08;;;;;;;7.25;2.40;;;5.60;1.00;;;;;;5010913;28;20421;-64
2020/12/25 12:25:34;;;;;;;7.13;2.50;;;5.60;1.00;;;;;;5010760;28;20431;-65
2020/12/25 12:28:00;;;;;;;4.40;1.88;;;5.50;1.00;;;;;;5011278;28;20429;-64
2020/12/25 12:30:26;;;;;;;6.55;2.42;;;5.60;1.00;;;;;;5011102;28;20435;-64
2020/12/25 12:32:53;;;;;;;5.30;2.20;;;5.60;1.00;;;;;;5011694;28;20412;-64
2020/12/25 12:35:19;;;;;;;5.70;2.30;;;5.50;1.00;;;;;;5015395;28;20417;-64
2020/12/25 12:37:46;;;;;;;5.63;3.00;;;5.50;1.00;;;;;;5014345;28;20915;-64
2020/12/25 12:40:13;;;;;;;4.40;1.98;;;5.50;1.00;;;;;;5014949;28;20417;-64
2020/12/25 12:42:39;;;;;;;5.07;2.08;;;5.70;1.00;;;;;;5015131;28;20420;-64
2020/12/25 12:45:06;;;;;;;4.95;2.00;;;5.90;1.00;;;;;;5015372;28;20483;-68
2020/12/25 12:47:32;;;;;;;2.97;1.80;;;5.90;1.00;;;;;;5014990;28;20436;-66
2020/12/25 12:49:58;;;;;;;4.28;1.60;;;5.90;1.00;;;;;;5015747;28;20877;-66
2020/12/25 12:52:25;;;;;;;5.03;2.00;;;5.80;1.00;;;;;;5015009;28;20454;-68
2020/12/25 12:54:51;;;;;;;3.13;2.10;;;6.10;1.00;;;;;;5014551;28;20424;-65